Time;durP1;ratioP1;P1;durP2;ratioP2;P2;SDS_P1;SDS_P2;PMS_P1;PMS_P2;Temp;Humidity;BMP_temperature;BMP_pressure;BME280_temperature;BME280_humidity;BME280_pressure;Samples;Min_cycle;Max_cycle;Signal;HPM_P1;HPM_P2
2022/10/07 00:00:48;;;;;;;50.90;33.20;;;;;;;16.67;100.00;101634.03;4983086;28;20460;-86
2022/10/07 00:03:13;;;;;;;57.53;34.83;;;;;;;16.47;100.00;101638.94;4983708;28;20035;-86
2022/10/07 00:05:39;;;;;;;54.60;33.92;;;;;;;16.45;100.00;101628.41;4984385;28;20037;-86
2022/10/07 00:08:05;;;;;;;50.47;33.60;;;;;;;16.40;100.00;101629.94;4963489;28;20034;-84
2022/10/07 00:10:39;;;;;;;54.67;33.78;;;;;;;16.26;100.00;101631.47;4983579;28;20035;-87
2022/10/07 00:13:04;;;;;;;53.83;35.63;;;;;;;16.29;100.00;101624.94;4981389;28;20027;-86
2022/10/07 00:15:39;;;;;;;52.30;33.42;;;;;;;16.30;100.00;101621.28;4982623;28;20502;-85
2022/10/07 00:18:04;;;;;;;53.47;34.33;;;;;;;16.22;100.00;101629.31;4982467;28;20045;-85
2022/10/07 00:20:30;;;;;;;53.10;35.17;;;;;;;16.16;100.00;101625.50;4984025;28;20030;-86
2022/10/07 00:22:58;;;;;;;53.95;34.83;;;;;;;16.24;100.00;101622.78;4983490;28;20483;-85
2022/10/07 00:25:24;;;;;;;52.15;34.28;;;;;;;16.46;100.00;101626.56;4982461;28;20461;-84
2022/10/07 00:27:50;;;;;;;51.03;34.13;;;;;;;16.38;100.00;101615.88;4965021;28;20027;-87
2022/10/07 00:30:16;;;;;;;52.80;32.78;;;;;;;16.36;100.00;101623.25;4965247;28;20099;-85
2022/10/07 00:32:42;;;;;;;53.72;32.80;;;;;;;16.41;100.00;101624.38;4948575;28;20041;-87
2022/10/07 00:35:11;;;;;;;50.00;31.92;;;;;;;16.56;100.00;101624.53;4946955;28;20035;-87
2022/10/07 00:37:41;;;;;;;53.17;32.88;;;;;;;16.64;100.00;101629.84;4981145;28;20038;-86
2022/10/07 00:42:34;;;;;;;49.42;33.45;;;;;;;16.44;100.00;101633.91;4919274;29;20123;-87
2022/10/07 00:45:00;;;;;;;52.33;34.22;;;;;;;16.43;100.00;101621.56;4922380;29;20063;-86
2022/10/07 00:47:33;;;;;;;48.38;33.67;;;;;;;16.59;100.00;101621.50;4921448;29;20368;-85
2022/10/07 00:50:14;;;;;;;56.85;34.97;;;;;;;16.46;100.00;101618.53;4922376;29;20040;-86
2022/10/07 00:52:55;;;;;;;50.85;32.83;;;;;;;16.43;100.00;101611.69;4920874;29;20501;-85
2022/10/07 00:55:23;;;;;;;51.20;33.03;;;;;;;16.54;100.00;101613.13;4903489;29;20120;-85
2022/10/07 00:57:54;;;;;;;52.38;33.88;;;;;;;16.46;100.00;101610.50;4903994;29;20075;-86
2022/10/07 01:00:22;;;;;;;49.05;32.80;;;;;;;16.29;100.00;101614.25;4920336;29;20085;-84
2022/10/07 01:02:49;;;;;;;48.10;32.72;;;;;;;16.26;100.00;101603.88;4920874;29;20524;-87
2022/10/07 01:05:15;;;;;;;50.03;32.58;;;;;;;16.28;100.00;101597.34;4923203;29;20032;-86
2022/10/07 01:07:44;;;;;;;53.20;33.92;;;;;;;16.00;100.00;101596.97;4938491;29;20112;-85
2022/10/07 01:10:11;;;;;;;50.90;34.50;;;;;;;15.81;100.00;101589.28;4904765;29;20048;-86
2022/10/07 01:13:05;;;;;;;58.33;35.42;;;;;;;15.69;100.00;101590.66;4920800;29;20055;-86
2022/10/07 01:15:44;;;;;;;58.17;36.08;;;;;;;15.54;100.00;101583.50;4911197;29;20111;-86
2022/10/07 01:22:28;;;;;;;58.78;33.90;;;;;;;15.49;100.00;101579.50;4921794;29;20155;-85
2022/10/07 01:25:11;;;;;;;50.28;33.92;;;;;;;15.40;100.00;101580.47;4930729;29;20036;-88
2022/10/07 01:27:39;;;;;;;60.80;34.92;;;;;;;15.26;100.00;101582.97;4927062;29;20036;-87
2022/10/07 01:30:23;;;;;;;61.00;37.35;;;;;;;15.30;100.00;101581.63;4943008;29;20024;-86
2022/10/07 01:32:55;;;;;;;54.65;35.22;;;;;;;15.35;100.00;101573.94;4917530;29;20062;-86
2022/10/07 01:35:31;;;;;;;63.28;36.33;;;;;;;15.29;100.00;101575.47;4920134;29;20071;-85
2022/10/07 01:38:02;;;;;;;56.75;36.90;;;;;;;15.31;100.00;101567.28;4911865;29;20047;-84
2022/10/07 01:40:34;;;;;;;64.38;38.63;;;;;;;15.27;100.00;101569.47;4936666;29;20756;-85
2022/10/07 01:43:00;;;;;;;58.22;36.38;;;;;;;15.30;100.00;101570.97;4920635;29;20036;-85
2022/10/07 01:45:29;;;;;;;59.88;37.05;;;;;;;15.34;100.00;101564.28;4920998;29;20067;-82
2022/10/07 01:47:55;;;;;;;62.00;37.60;;;;;;;15.24;100.00;101567.13;4937038;29;20040;-83
2022/10/07 01:50:26;;;;;;;62.95;38.67;;;;;;;15.23;100.00;101564.59;4922343;29;20028;-83
2022/10/07 01:53:22;;;;;;;57.85;36.95;;;;;;;15.21;100.00;101569.28;4922748;29;20047;-84
2022/10/07 01:56:06;;;;;;;60.40;38.08;;;;;;;15.19;100.00;101558.75;4938090;29;20047;-84
2022/10/07 01:58:37;;;;;;;59.40;37.17;;;;;;;15.16;100.00;101567.09;4938522;29;20115;-83
2022/10/07 02:01:12;;;;;;;56.15;36.03;;;;;;;15.25;100.00;101557.25;4938569;29;20055;-83
2022/10/07 02:04:05;;;;;;;60.63;35.25;;;;;;;15.32;100.00;101556.41;4920674;29;20132;-84
2022/10/07 02:06:44;;;;;;;59.83;34.83;;;;;;;15.35;100.00;101555.25;4935304;29;20506;-85
2022/10/07 02:09:30;;;;;;;59.00;36.47;;;;;;;15.27;100.00;101553.44;4917663;29;20047;-85
2022/10/07 02:12:23;;;;;;;56.10;35.28;;;;;;;15.33;100.00;101552.75;4901380;29;20075;-86
2022/10/07 02:15:04;;;;;;;55.47;33.28;;;;;;;15.49;100.00;101551.94;4917197;29;20394;-86
2022/10/07 02:17:36;;;;;;;58.13;35.50;;;;;;;15.32;100.00;101550.25;4901820;29;20368;-85
2022/10/07 02:20:04;;;;;;;55.00;34.83;;;;;;;15.26;100.00;101540.22;4901444;29;20068;-87
2022/10/07 02:22:31;;;;;;;56.38;35.45;;;;;;;15.16;100.00;101544.91;4918182;29;20052;-86
2022/10/07 02:24:58;;;;;;;61.22;36.90;;;;;;;15.06;100.00;101536.22;4901160;29;20074;-86
2022/10/07 02:27:33;;;;;;;57.08;36.42;;;;;;;15.00;100.00;101529.72;4920091;29;20111;-87
2022/10/07 02:34:30;;;;;;;63.60;36.05;;;;;;;15.11;100.00;101536.56;4935734;29;20074;-87
2022/10/07 02:37:37;;;;;;;62.35;34.88;;;;;;;15.27;100.00;101531.22;4900575;29;20049;-87
2022/10/07 02:40:33;;;;;;;54.55;34.40;;;;;;;15.29;100.00;101534.56;4911736;29;20060;-86
2022/10/07 02:43:38;;;;;;;55.92;34.72;;;;;;;15.35;100.00;101525.88;4909229;29;20048;-87
2022/10/07 02:49:45;;;;;;;59.65;35.50;;;;;;;15.54;100.00;101522.88;4941393;29;20111;-88
2022/10/07 02:52:43;;;;;;;54.50;33.78;;;;;;;15.56;100.00;101526.22;4911417;29;21299;-86
2022/10/07 02:55:33;;;;;;;57.80;35.55;;;;;;;15.42;100.00;101525.03;4901750;29;20116;-86
2022/10/07 02:58:56;;;;;;;63.08;36.13;;;;;;;15.25;100.00;101510.00;4904866;29;20048;-88
2022/10/07 03:02:45;;;;;;;58.38;36.88;;;;;;;15.28;100.00;101522.22;4848835;29;20148;-89
2022/10/07 03:05:48;;;;;;;62.17;37.95;;;;;;;15.20;100.00;101515.03;4856201;29;20054;-88
2022/10/07 03:08:41;;;;;;;62.03;39.67;;;;;;;15.16;100.00;101518.19;4838205;29;20091;-86
2022/10/07 03:14:28;;;;;;;64.97;40.10;;;;;;;15.39;100.00;101525.38;4639335;26;20051;-89
2022/10/07 03:17:44;;;;;;;71.88;40.70;;;;;;;15.30;100.00;101529.06;4930349;29;20318;-86
2022/10/07 03:21:41;;;;;;;73.60;40.80;;;;;;;15.24;100.00;101529.72;4955478;29;20052;-87
2022/10/07 03:24:50;;;;;;;75.95;40.22;;;;;;;15.18;100.00;101522.38;4944388;29;20044;-88
2022/10/07 03:27:34;;;;;;;65.80;40.10;;;;;;;15.21;100.00;101530.03;4952458;29;20039;-87
2022/10/07 03:30:37;;;;;;;73.05;41.65;;;;;;;15.21;100.00;101526.56;4899922;29;20076;-87
2022/10/07 03:33:55;;;;;;;75.60;40.42;;;;;;;15.27;100.00;101523.22;5149429;23;20047;-88
2022/10/07 03:42:59;;;;;;;67.72;39.78;;;;;;;15.08;100.00;101520.91;5130969;23;20065;-86
2022/10/07 03:46:01;;;;;;;66.65;40.88;;;;;;;15.23;100.00;101519.22;4972646;29;20051;-87
2022/10/07 03:49:10;;;;;;;64.70;38.92;;;;;;;15.23;100.00;101511.19;4953088;29;20436;-88
2022/10/07 03:52:14;;;;;;;62.25;38.90;;;;;;;15.16;100.00;101513.69;4959987;29;20048;-86
2022/10/07 03:55:23;;;;;;;66.82;39.53;;;;;;;14.96;100.00;101515.03;4914470;29;20047;-85
2022/10/07 03:58:25;;;;;;;70.68;39.60;;;;;;;15.05;100.00;101511.34;4969593;29;20492;-87
2022/10/07 04:04:51;;;;;;;65.43;39.17;;;;;;;15.09;100.00;101511.84;3983834;26;20134;-87
2022/10/07 04:13:09;;;;;;;67.88;40.10;;;;;;;14.78;100.00;101512.50;4952314;29;20047;-84
2022/10/07 04:19:47;;;;;;;70.68;41.30;;;;;;;14.60;100.00;101514.50;4929512;29;20059;-87
2022/10/07 04:22:45;;;;;;;64.25;40.05;;;;;;;14.64;100.00;101512.34;4956508;29;20039;-86
2022/10/07 04:29:05;;;;;;;71.88;41.05;;;;;;;14.60;100.00;101511.00;4981271;23;20052;-91
2022/10/07 04:44:08;;;;;;;72.53;41.13;;;;;;;14.59;100.00;101504.81;5784580;23;20059;-85
2022/10/07 04:47:47;;;;;;;70.30;42.20;;;;;;;14.61;100.00;101502.84;4963361;29;20054;-83
2022/10/07 04:53:21;;;;;;;68.72;41.17;;;;;;;14.53;100.00;101500.13;5022567;23;20114;-86
2022/10/07 04:56:05;;;;;;;88.47;44.50;;;;;;;14.47;100.00;101500.81;4972751;29;20051;-88
2022/10/07 04:59:53;;;;;;;69.55;42.33;;;;;;;14.46;100.00;101505.28;5016222;23;20082;-85
2022/10/07 05:02:32;;;;;;;73.20;41.25;;;;;;;14.41;100.00;101496.97;4975217;29;20055;-85
2022/10/07 05:07:59;;;;;;;76.97;42.53;;;;;;;14.44;100.00;101503.78;3040881;26;20517;-84
2022/10/07 05:10:27;;;;;;;72.65;41.63;;;;;;;14.43;100.00;101499.44;4943667;29;20036;-82
2022/10/07 05:13:13;;;;;;;81.15;44.08;;;;;;;14.37;100.00;101511.63;4944944;28;20023;-85
2022/10/07 05:16:06;;;;;;;77.55;43.08;;;;;;;14.45;100.00;101502.78;4962954;29;20040;-85
2022/10/07 05:18:38;;;;;;;79.60;44.67;;;;;;;14.44;100.00;101507.31;4925014;29;20052;-83
2022/10/07 05:21:10;;;;;;;77.82;43.47;;;;;;;14.42;100.00;101508.44;4938757;29;20747;-84
2022/10/07 05:23:43;;;;;;;77.60;43.80;;;;;;;14.39;100.00;101506.09;4938639;29;20044;-84
2022/10/07 05:30:39;;;;;;;80.88;46.75;;;;;;;14.31;100.00;101500.72;4960135;29;20046;-84
2022/10/07 05:33:09;;;;;;;;;;;;;;;14.44;100.00;101503.78;4944088;29;20031;-84
2022/10/07 05:35:49;;;;;;;79.10;43.85;;;;;;;14.65;100.00;101504.16;4939648;29;19919;-84
2022/10/07 05:38:27;;;;;;;;;;;;;;;14.83;100.00;101512.88;4899726;29;20048;-84
2022/10/07 05:41:06;;;;;;;76.57;40.40;;;;;;;14.78;100.00;101509.84;4953766;29;19942;-82
2022/10/07 05:43:41;;;;;;;73.13;41.28;;;;;;;14.81;100.00;101514.88;4937820;29;20040;-85
2022/10/07 05:46:14;;;;;;;71.90;42.65;;;;;;;15.00;100.00;101509.22;4939330;29;20533;-84
2022/10/07 05:49:04;;;;;;;68.30;40.72;;;;;;;15.20;100.00;101519.53;4925269;29;20039;-83
2022/10/07 05:51:35;;;;;;;71.38;41.22;;;;;;;15.14;100.00;101517.56;4955624;29;20047;-85
2022/10/07 05:54:13;;;;;;;66.75;41.88;;;;;;;15.23;100.00;101506.69;4955552;29;20039;-84
2022/10/07 05:56:54;;;;;;;80.70;42.20;;;;;;;15.10;100.00;101513.53;4987790;23;20227;-84
2022/10/07 05:59:28;;;;;;;85.55;42.33;;;;;;;15.19;100.00;101517.88;4942942;29;20039;-86
2022/10/07 06:02:02;;;;;;;93.60;43.80;;;;;;;15.37;100.00;101516.69;4940225;29;20051;-85
2022/10/07 06:04:30;;;;;;;77.10;42.85;;;;;;;15.52;100.00;101516.88;4972323;29;20043;-83
2022/10/07 06:07:04;;;;;;;71.30;39.35;;;;;;;15.92;100.00;101511.41;4956904;29;20540;-85
2022/10/07 06:13:06;;;;;;;74.72;37.80;;;;;;;16.63;100.00;101521.13;4968042;29;20035;-86
2022/10/07 06:15:42;;;;;;;78.13;39.08;;;;;;;16.56;100.00;101519.31;4960861;29;20055;-86
2022/10/07 06:18:20;;;;;;;77.80;41.45;;;;;;;16.28;100.00;101527.81;4957099;29;20068;-87
2022/10/07 06:21:01;;;;;;;74.03;42.00;;;;;;;15.96;100.00;101523.44;4933946;29;20055;-85
2022/10/07 06:23:29;;;;;;;66.50;40.15;;;;;;;15.94;100.00;101525.44;4956465;29;20043;-85
2022/10/07 06:26:37;;;;;;;68.40;40.83;;;;;;;16.27;100.00;101522.66;4974069;29;20042;-85
2022/10/07 06:29:25;;;;;;;69.97;40.58;;;;;;;16.26;100.00;101523.63;4970053;29;20047;-83
2022/10/07 06:32:05;;;;;;;68.05;40.35;;;;;;;16.91;100.00;101526.78;4955477;29;20128;-87
2022/10/07 06:34:32;;;;;;;68.47;40.28;;;;;;;17.05;100.00;101526.84;4956495;29;20050;-86
2022/10/07 06:37:33;;;;;;;72.47;43.92;;;;;;;17.20;100.00;101528.75;4967487;29;20047;-86
2022/10/07 06:40:49;;;;;;;70.68;44.38;;;;;;;17.22;100.00;101526.69;4942309;29;20055;-86
2022/10/07 06:44:14;;;;;;;69.97;42.53;;;;;;;17.43;100.00;101529.53;4974058;29;20108;-87
2022/10/07 06:46:47;;;;;;;67.65;42.83;;;;;;;17.45;100.00;101528.31;4955838;29;20051;-85
2022/10/07 06:50:02;;;;;;;66.65;41.35;;;;;;;17.61;100.00;101534.56;4972074;29;20394;-91
2022/10/07 06:52:52;;;;;;;73.72;42.65;;;;;;;17.91;100.00;101539.75;4968549;29;20051;-87
2022/10/07 06:55:26;;;;;;;64.90;40.55;;;;;;;17.93;100.00;101542.28;4970086;29;20078;-86
2022/10/07 06:58:25;;;;;;;77.80;42.65;;;;;;;18.04;100.00;101542.63;4957996;29;20039;-87
2022/10/07 07:01:21;;;;;;;65.60;39.90;;;;;;;18.69;100.00;101535.59;4954269;29;20051;-86
2022/10/07 07:04:02;;;;;;;68.03;42.00;;;;;;;19.43;100.00;101547.69;4974850;28;20059;-86
2022/10/07 07:06:38;;;;;;;66.10;38.90;;;;;;;19.60;100.00;101554.44;4975224;28;20043;-86
2022/10/07 07:09:16;;;;;;;63.13;39.33;;;;;;;19.50;100.00;101553.94;4955230;29;20050;-86
2022/10/07 07:12:35;;;;;;;73.40;41.97;;;;;;;19.18;100.00;101549.94;4945528;29;20039;-89
2022/10/07 07:15:29;;;;;;;61.80;40.05;;;;;;;19.45;100.00;101551.88;4974714;29;20047;-86
2022/10/07 07:18:21;;;;;;;77.55;41.38;;;;;;;20.11;100.00;101561.19;4973770;23;20066;-86
2022/10/07 07:21:21;;;;;;;65.88;41.45;;;;;;;19.97;100.00;101556.75;4949753;29;20055;-87
2022/10/07 07:23:57;;;;;;;59.22;40.78;;;;;;;20.15;100.00;101558.91;4938568;29;20040;-86
2022/10/07 07:26:56;;;;;;;62.67;41.00;;;;;;;19.83;100.00;101565.78;4940675;29;20043;-86
2022/10/07 07:29:45;;;;;;;60.78;42.05;;;;;;;19.97;100.00;101559.44;4938755;29;20075;-86
2022/10/07 07:32:46;;;;;;;59.70;39.90;;;;;;;20.16;100.00;101565.13;4938480;29;20044;-88
2022/10/07 07:35:16;;;;;;;54.15;36.50;;;;;;;20.51;100.00;101561.41;4955873;29;20031;-86
2022/10/07 07:38:54;;;;;;;63.47;37.40;;;;;;;20.73;100.00;101562.06;4945638;29;20080;-85
2022/10/07 07:42:18;;;;;;;58.15;36.25;;;;;;;21.00;100.00;101561.94;4952330;29;20062;-86
2022/10/07 07:44:57;;;;;;;55.45;36.97;;;;;;;21.92;100.00;101570.06;4928128;29;20086;-87
2022/10/07 07:47:48;;;;;;;54.95;35.13;;;;;;;22.29;100.00;101564.97;4922390;29;20099;-86
2022/10/07 07:50:28;;;;;;;55.10;35.57;;;;;;;22.16;100.00;101571.25;4950652;29;20048;-87
2022/10/07 07:53:21;;;;;;;52.85;34.97;;;;;;;22.13;100.00;101563.59;4952285;29;20303;-87
2022/10/07 07:56:14;;;;;;;50.83;34.20;;;;;;;22.36;100.00;101561.22;4944438;29;20039;-86
2022/10/07 07:59:13;;;;;;;55.45;35.03;;;;;;;22.90;100.00;101563.44;4944422;29;20052;-85
2022/10/07 08:02:39;;;;;;;53.55;35.72;;;;;;;22.55;100.00;101560.28;4953962;29;20039;-86
2022/10/07 08:05:36;;;;;;;51.80;34.28;;;;;;;22.41;100.00;101557.84;4923295;29;20084;-86
2022/10/07 08:08:05;;;;;;;53.33;34.05;;;;;;;22.85;100.00;101560.56;4938069;29;20040;-85
2022/10/07 08:10:39;;;;;;;54.38;34.92;;;;;;;22.77;100.00;101558.09;4922624;29;20047;-86
2022/10/07 08:13:19;;;;;;;53.30;35.42;;;;;;;22.93;100.00;101557.63;4937852;29;20137;-86
2022/10/07 08:16:13;;;;;;;54.80;34.30;;;;;;;23.28;100.00;101559.84;4927346;29;20044;-87
2022/10/07 08:19:12;;;;;;;63.08;34.08;;;;;;;23.24;100.00;101553.22;4958852;29;20062;-86
2022/10/07 08:22:03;;;;;;;52.55;34.13;;;;;;;23.03;100.00;101552.56;4945077;29;20058;-86
2022/10/07 08:24:36;;;;;;;51.65;34.42;;;;;;;22.84;100.00;101558.06;4953080;29;20136;-85
2022/10/07 08:27:29;;;;;;;50.40;34.67;;;;;;;22.92;100.00;101555.13;4939241;29;20082;-86
2022/10/07 08:32:40;;;;;;;46.83;31.67;;;;;;;23.74;96.66;101554.88;4847560;26;20107;-87
2022/10/07 08:35:09;;;;;;;52.63;32.22;;;;;;;23.80;97.05;101548.56;4961348;29;20050;-87
2022/10/07 08:37:39;;;;;;;49.33;32.80;;;;;;;23.29;99.95;101550.69;4944527;29;20034;-87
2022/10/07 08:40:06;;;;;;;51.30;34.05;;;;;;;23.51;98.96;101547.41;4945643;29;20043;-89
2022/10/07 08:42:40;;;;;;;56.72;31.73;;;;;;;23.79;97.91;101548.81;4977770;29;20039;-89
2022/10/07 08:45:31;;;;;;;50.25;32.10;;;;;;;23.92;99.25;101541.38;4929346;29;20130;-88
2022/10/07 08:48:05;;;;;;;50.08;31.30;;;;;;;23.86;99.24;101542.28;4946911;29;20051;-89
2022/10/07 08:50:47;;;;;;;52.03;30.83;;;;;;;24.41;93.46;101543.09;4960465;29;20051;-88
2022/10/07 08:53:28;;;;;;;48.90;29.90;;;;;;;24.57;92.12;101541.63;4977806;29;20035;-87
2022/10/07 08:56:00;;;;;;;49.55;30.25;;;;;;;24.53;95.43;101543.16;4977340;29;20019;-88
2022/10/07 08:59:03;;;;;;;49.00;31.20;;;;;;;25.38;89.76;101550.03;4960592;29;20106;-88
2022/10/07 09:01:49;;;;;;;40.67;28.23;;;;;;;26.12;83.55;101549.28;4976864;29;20044;-88
2022/10/07 09:04:24;;;;;;;42.40;29.42;;;;;;;25.23;89.01;101537.97;4977506;29;20102;-89
2022/10/07 09:06:57;;;;;;;48.85;30.00;;;;;;;26.20;82.77;101548.97;4959856;29;20039;-89
2022/10/07 09:09:42;;;;;;;42.17;27.65;;;;;;;26.45;82.52;101542.41;4946651;29;20039;-88
2022/10/07 09:12:17;;;;;;;41.85;27.65;;;;;;;26.02;83.88;101535.50;4976991;29;20122;-87
2022/10/07 09:14:46;;;;;;;40.72;28.40;;;;;;;25.90;83.61;101531.97;4929152;29;20066;-88
2022/10/07 09:17:26;;;;;;;39.33;28.52;;;;;;;25.54;87.42;101529.53;4975254;29;20063;-87
2022/10/07 09:19:59;;;;;;;41.67;29.35;;;;;;;25.27;86.80;101517.44;4959038;29;20048;-89
2022/10/07 09:22:37;;;;;;;43.05;29.35;;;;;;;25.67;85.19;101521.97;4942363;29;20043;-86
2022/10/07 09:25:12;;;;;;;42.72;29.45;;;;;;;25.79;85.42;101519.22;4975546;29;20095;-88
2022/10/07 09:27:38;;;;;;;45.75;27.55;;;;;;;25.95;85.37;101515.78;4957822;29;20055;-88
2022/10/07 09:30:05;;;;;;;42.35;28.00;;;;;;;27.01;78.54;101509.72;4927338;29;20187;-87
2022/10/07 09:32:31;;;;;;;37.85;27.42;;;;;;;26.43;79.34;101517.31;4958345;29;20091;-89
2022/10/07 09:35:04;;;;;;;43.60;27.70;;;;;;;26.30;80.75;101507.56;4958385;29;20059;-89
2022/10/07 09:37:30;;;;;;;45.63;28.50;;;;;;;25.72;83.62;101509.56;4975045;29;20034;-87
2022/10/07 09:40:30;;;;;;;38.08;27.95;;;;;;;25.55;86.48;101504.03;4942794;29;20031;-86
2022/10/07 09:42:58;;;;;;;45.03;28.00;;;;;;;26.53;79.61;101501.22;4973430;29;20050;-88
2022/10/07 09:45:31;;;;;;;39.75;26.65;;;;;;;27.33;77.22;101504.53;4942137;29;20039;-87
2022/10/07 09:48:07;;;;;;;66.03;35.80;;;;;;;27.34;78.20;101502.63;4957221;29;20054;-87
2022/10/07 09:50:41;;;;;;;42.30;26.70;;;;;;;27.32;76.22;101500.16;4941944;29;20058;-88
2022/10/07 09:53:28;;;;;;;39.80;26.90;;;;;;;28.50;70.75;101496.84;4946168;29;20086;-87
2022/10/07 09:56:02;;;;;;;40.42;25.95;;;;;;;28.38;72.05;101503.50;4958443;29;20043;-89
2022/10/07 09:58:30;;;;;;;40.15;27.45;;;;;;;28.49;69.98;101488.91;4958071;29;20035;-89
2022/10/07 10:01:01;;;;;;;40.00;25.40;;;;;;;29.82;65.72;101485.06;4958046;29;20039;-88
2022/10/07 10:03:30;;;;;;;42.33;25.20;;;;;;;30.98;61.78;101485.41;4941370;29;20094;-88
2022/10/07 10:05:56;;;;;;;41.83;25.45;;;;;;;30.68;55.42;101485.38;4958113;29;20031;-89
2022/10/07 10:08:45;;;;;;;35.30;23.80;;;;;;;31.13;54.87;101479.91;4974932;29;20039;-86
2022/10/07 10:11:17;;;;;;;33.67;21.75;;;;;;;31.04;53.29;101478.84;4957150;29;20055;-88
2022/10/07 10:13:49;;;;;;;33.92;22.52;;;;;;;30.11;54.32;101478.09;4958113;29;20035;-88
2022/10/07 10:16:27;;;;;;;31.88;23.23;;;;;;;30.04;54.32;101474.78;4974533;29;20078;-87
2022/10/07 10:18:57;;;;;;;33.13;23.15;;;;;;;29.65;55.62;101459.84;4957701;29;20071;-87
2022/10/07 10:21:39;;;;;;;31.63;22.48;;;;;;;30.40;53.52;101467.53;4944081;29;20079;-90
2022/10/07 10:27:31;;;;;;;29.75;20.23;;;;;;;31.45;48.20;101456.84;4960429;29;20039;-88
2022/10/07 10:30:08;;;;;;;30.60;20.95;;;;;;;31.05;47.08;101453.09;4926539;29;20051;-90
2022/10/07 10:33:03;;;;;;;26.80;20.05;;;;;;;30.22;48.07;101448.88;4959098;29;20035;-89
2022/10/07 10:35:53;;;;;;;33.72;20.65;;;;;;;31.41;46.06;101440.16;4961065;29;20118;-87
2022/10/07 10:38:33;;;;;;;31.90;20.58;;;;;;;31.14;46.03;101435.00;4966926;29;20042;-88
2022/10/07 11:22:24;;;;;;;32.65;22.20;;;;;;;26.04;63.18;101351.34;1101433;23;20306;-88
2022/10/07 11:25:31;;;;;;;34.60;23.38;;;;;;;26.12;60.31;101347.38;4956433;28;20055;-90
2022/10/07 11:28:26;;;;;;;33.33;23.98;;;;;;;25.51;62.14;101345.41;4976542;29;20047;-88
2022/10/07 11:31:11;;;;;;;35.63;24.25;;;;;;;26.09;58.46;101335.13;4971337;29;20042;-87
2022/10/07 11:34:01;;;;;;;35.13;22.48;;;;;;;26.71;55.85;101329.66;4940437;29;20393;-87
2022/10/07 11:37:06;;;;;;;27.60;20.23;;;;;;;27.45;51.59;101332.91;4945062;29;20024;-87
2022/10/07 11:39:37;;;;;;;26.20;17.00;;;;;;;28.16;48.34;101335.34;4947262;29;20036;-87
2022/10/07 11:42:25;;;;;;;27.80;17.13;;;;;;;27.84;47.99;101328.19;4940882;29;20070;-91
2022/10/07 11:45:12;;;;;;;21.92;14.95;;;;;;;29.58;44.42;101325.38;4943813;29;20053;-92
2022/10/07 11:47:45;;;;;;;22.98;15.55;;;;;;;29.45;43.62;101328.59;4941285;29;20063;-88
2022/10/07 11:50:27;;;;;;;29.08;19.08;;;;;;;29.72;44.72;101321.03;4957856;28;20079;-88
2022/10/07 11:53:00;;;;;;;28.17;18.77;;;;;;;30.22;43.33;101307.47;4953616;29;20071;-87
2022/10/07 11:55:31;;;;;;;38.80;20.98;;;;;;;28.76;46.79;101314.31;4943378;29;20039;-87
2022/10/07 11:58:03;;;;;;;28.92;19.88;;;;;;;27.19;51.55;101304.50;4945596;29;20120;-87
2022/10/07 12:00:34;;;;;;;33.63;19.88;;;;;;;25.82;56.48;101296.03;4943640;29;20047;-89
2022/10/07 12:03:18;;;;;;;30.95;18.10;;;;;;;25.32;58.13;101281.47;4961022;28;20102;-86
2022/10/07 12:05:49;;;;;;;31.13;17.55;;;;;;;25.06;57.95;101280.94;4999649;23;20807;-86
2022/10/07 12:08:40;;;;;;;28.27;18.00;;;;;;;24.90;58.61;101284.38;4944327;29;20493;-88
2022/10/07 12:11:17;;;;;;;25.27;14.73;;;;;;;24.76;56.76;101277.50;4941177;29;20055;-90
2022/10/07 12:13:49;;;;;;;31.60;17.52;;;;;;;24.84;57.37;101273.66;4941394;29;20074;-87
2022/10/07 12:16:30;;;;;;;27.57;17.33;;;;;;;24.91;57.65;101267.06;4958904;29;20032;-87
2022/10/07 12:19:14;;;;;;;25.67;15.90;;;;;;;24.93;57.80;101256.78;4958361;29;20169;-88
2022/10/07 12:21:56;;;;;;;27.60;16.85;;;;;;;24.78;59.52;101252.88;4958514;29;20043;-85
2022/10/07 12:24:36;;;;;;;27.10;18.77;;;;;;;24.91;59.40;101248.06;4958540;29;20043;-89
2022/10/07 12:27:16;;;;;;;27.33;17.60;;;;;;;24.96;59.10;101240.03;4946870;29;20050;-84
2022/10/07 12:30:00;;;;;;;29.25;19.00;;;;;;;24.76;60.38;101239.56;4977508;29;20040;-86
2022/10/07 12:32:51;;;;;;;26.63;18.70;;;;;;;24.57;61.37;101243.47;4973941;29;20031;-85
2022/10/07 12:35:40;;;;;;;26.98;18.02;;;;;;;24.92;59.86;101233.47;4969271;29;20039;-89
2022/10/07 12:38:12;;;;;;;27.73;17.75;;;;;;;24.77;59.72;101235.78;4956768;29;20105;-85
2022/10/07 12:40:41;;;;;;;30.75;19.00;;;;;;;24.37;61.74;101226.75;4978066;29;20039;-87
2022/10/07 12:43:24;;;;;;;31.25;18.55;;;;;;;24.41;61.28;101215.22;4961894;29;20036;-89
2022/10/07 12:45:52;;;;;;;24.42;16.05;;;;;;;24.35;61.60;101220.75;4964942;29;20039;-89
2022/10/07 12:48:21;;;;;;;24.58;16.27;;;;;;;24.23;61.62;101222.63;4931707;29;20019;-89
2022/10/07 12:50:52;;;;;;;25.80;15.45;;;;;;;23.92;63.66;101212.91;4963491;29;20045;-88
2022/10/07 12:53:21;;;;;;;34.28;16.95;;;;;;;23.97;62.91;101213.84;4946952;29;20110;-90
2022/10/07 12:55:53;;;;;;;27.02;13.40;;;;;;;24.31;61.92;101214.16;4973743;29;20032;-89
2022/10/07 13:01:42;;;;;;;18.80;11.77;;;;;;;24.51;58.34;101206.47;4973937;29;20047;-89
2022/10/07 13:04:22;;;;;;;23.08;12.40;;;;;;;24.40;59.46;101202.72;4973475;29;20075;-89
2022/10/07 13:06:54;;;;;;;21.92;10.55;;;;;;;24.60;58.78;101203.16;4954779;29;20050;-88
2022/10/07 13:09:47;;;;;;;20.20;10.73;;;;;;;24.53;57.33;101190.78;4953900;29;20053;-86
2022/10/07 13:12:36;;;;;;;19.80;9.88;;;;;;;24.41;57.67;101190.00;4955487;29;20035;-89
2022/10/07 13:15:11;;;;;;;19.33;10.75;;;;;;;24.28;57.67;101187.53;4955997;29;20050;-90
2022/10/07 13:17:51;;;;;;;19.05;11.02;;;;;;;24.22;59.11;101180.34;4956376;29;20043;-88
2022/10/07 13:20:17;;;;;;;20.17;10.43;;;;;;;24.42;58.88;101172.69;4973427;29;20036;-88
2022/10/07 13:22:47;;;;;;;20.13;9.00;;;;;;;24.51;58.81;101163.13;4973037;29;20037;-87
2022/10/07 13:25:16;;;;;;;26.35;11.70;;;;;;;24.32;59.34;101169.75;4956410;29;20031;-88
2022/10/07 13:27:56;;;;;;;20.60;11.07;;;;;;;24.09;60.61;101159.72;4956216;29;20094;-89
2022/10/07 13:30:39;;;;;;;20.08;13.27;;;;;;;24.21;61.09;101162.44;4972602;29;20031;-89
2022/10/07 13:33:32;;;;;;;20.58;12.35;;;;;;;24.14;60.12;101159.84;4970014;29;20054;-86
2022/10/07 13:36:16;;;;;;;21.75;12.60;;;;;;;24.16;61.07;101147.69;4939448;29;20397;-91
2022/10/07 13:38:49;;;;;;;29.50;15.55;;;;;;;24.08;62.26;101145.34;4961709;29;20046;-90
2022/10/07 13:41:29;;;;;;;22.17;14.30;;;;;;;23.84;61.76;101151.78;4942524;29;20055;-88
2022/10/07 13:44:01;;;;;;;26.92;13.00;;;;;;;23.91;61.41;101148.97;4953414;29;20046;-88
2022/10/07 13:46:30;;;;;;;20.48;12.93;;;;;;;23.77;62.28;101147.53;4941572;29;20047;-89
2022/10/07 13:49:00;;;;;;;20.58;12.50;;;;;;;23.97;62.49;101131.78;4975112;28;20371;-92
2022/10/07 13:51:32;;;;;;;22.10;12.88;;;;;;;23.86;60.67;101128.03;4930943;29;20062;-93
2022/10/07 13:54:50;;;;;;;19.05;12.07;;;;;;;23.92;61.06;101123.56;4951708;29;20043;-92
2022/10/07 13:57:52;;;;;;;15.75;10.10;;;;;;;23.98;60.82;101122.59;4966397;29;20040;-92
2022/10/07 14:01:04;;;;;;;16.77;10.63;;;;;;;23.95;60.65;101115.78;4977621;28;20043;-89
2022/10/07 14:03:31;;;;;;;17.08;9.00;;;;;;;23.95;60.84;101118.50;4944928;29;20044;-89
2022/10/07 14:09:00;;;;;;;21.00;11.20;;;;;;;23.76;61.41;101111.53;4543476;26;20067;-91
2022/10/07 14:11:36;;;;;;;13.90;8.95;;;;;;;23.83;60.44;101106.81;4956604;29;20055;-90